Ana Sayfa
METAR-TAF:

METAR-TAF

Havaalanları :

Ipoh, Malezya

Enlem: 04-34-09N, Boylam: 101-05-35E, yükseklik: 40 m

Güncel hava durumu gözlemi

Rapor saat 19:00 UTC de 19 dakika önce yapıldı.
Rüzgar kuzey/kuzeydoğudan 7 kt
Sıcaklık 25°C
Nem 83%
Basınç 1009 hPa
Görüş mesafesi: 9000 m
3000 ft yükseklikte parçalı bulutlu

METAR: WMKI 101900Z 02007KT 9000 SCT030 25/22 Q1009

Saat: 03:19 (19:19 UTC)

Tahmin

Rapor saat 17:00 UTC de 2 saat ve 19 dakika önce yapıldı.
Ayın 10'si saat 18 UTC'den ayın 11'si saat 18 UTC'ye kadar geçerli Tahmin
Rüzgar kuzeydoğudan 5 kt
Görüş mesafesi: 8000 m
1700 ft yükseklikte az bulutlu, Kümülonimbus.
Geçici
ayın 11'si saat 12 UTC'den ayın 11'si saat 17 UTC'ye kadar
Görüş mesafesi: 6000 m
gök gürültülü fırtına, hafif yağmur

TAF: WMKI 101700Z 1018/1118 04005KT 8000 FEW017CB TEMPO 1112/1117 6000 -TSRA

4.000'den fazla havaalanı için hava durumu gözlemleri ve tahminleri (METAR ve TAF raporları).

Kullanılabilir istasyonlar harita üzerinde sarı ve kırmızı noktalarla gösterilir.

İstasyonun adını görmek için fareyi noktanın üzerinde gezdirin.

Sonrasında hava gözlem ve tahminlerini görmek için tıklayın.

Haritayı değiştirmek için: yaklaştırmak için siyah artı işaretli yeşil düğmeye ve uzaklaştırmak için de eksi işaretli düğmeye hızla tıklayın; bitişik haritalar için yeşil okları kullanın.


METAR-TAF: